sensor_id;sensor_type;location;lat;lon;timestamp;temperature;humidity
8593;DHT22;4334;49.982;8.398;2023-07-13T00:02:22;18.90;99.90
8593;DHT22;4334;49.982;8.398;2023-07-13T00:04:49;18.90;99.90
8593;DHT22;4334;49.982;8.398;2023-07-13T00:07:17;18.90;99.90
8593;DHT22;4334;49.982;8.398;2023-07-13T00:09:45;19.00;99.90
8593;DHT22;4334;49.982;8.398;2023-07-13T00:12:23;19.00;99.90
8593;DHT22;4334;49.982;8.398;2023-07-13T00:14:50;19.10;99.90
8593;DHT22;4334;49.982;8.398;2023-07-13T00:17:17;19.10;99.90
8593;DHT22;4334;49.982;8.398;2023-07-13T00:19:45;19.00;99.90
8593;DHT22;4334;49.982;8.398;2023-07-13T00:24:39;18.90;99.90
8593;DHT22;4334;49.982;8.398;2023-07-13T00:27:07;18.90;99.90
8593;DHT22;4334;49.982;8.398;2023-07-13T00:32:02;18.90;99.90
8593;DHT22;4334;49.982;8.398;2023-07-13T00:34:29;19.00;99.90
8593;DHT22;4334;49.982;8.398;2023-07-13T00:36:57;19.00;99.90
8593;DHT22;4334;49.982;8.398;2023-07-13T00:39:24;19.00;99.90
8593;DHT22;4334;49.982;8.398;2023-07-13T00:41:51;19.10;99.90
8593;DHT22;4334;49.982;8.398;2023-07-13T00:44:19;19.10;99.90
8593;DHT22;4334;49.982;8.398;2023-07-13T00:46:46;19.00;99.90
8593;DHT22;4334;49.982;8.398;2023-07-13T00:49:20;18.90;99.90
8593;DHT22;4334;49.982;8.398;2023-07-13T00:51:50;18.90;99.90
8593;DHT22;4334;49.982;8.398;2023-07-13T00:54:22;18.90;99.90
8593;DHT22;4334;49.982;8.398;2023-07-13T00:56:52;18.90;99.90
8593;DHT22;4334;49.982;8.398;2023-07-13T00:59:20;18.90;99.90
8593;DHT22;4334;49.982;8.398;2023-07-13T01:01:48;18.80;99.90
8593;DHT22;4334;49.982;8.398;2023-07-13T01:04:15;18.80;99.90
8593;DHT22;4334;49.982;8.398;2023-07-13T01:06:42;18.70;99.90
8593;DHT22;4334;49.982;8.398;2023-07-13T01:11:38;18.60;99.90
8593;DHT22;4334;49.982;8.398;2023-07-13T01:14:06;18.80;99.90
8593;DHT22;4334;49.982;8.398;2023-07-13T01:16:35;18.90;99.90
8593;DHT22;4334;49.982;8.398;2023-07-13T01:19:06;19.00;99.90
8593;DHT22;4334;49.982;8.398;2023-07-13T01:21:36;19.10;99.90
8593;DHT22;4334;49.982;8.398;2023-07-13T01:24:03;19.10;99.90
8593;DHT22;4334;49.982;8.398;2023-07-13T01:26:30;18.90;99.90
8593;DHT22;4334;49.982;8.398;2023-07-13T01:28:57;18.80;99.90
8593;DHT22;4334;49.982;8.398;2023-07-13T01:36:18;18.80;99.90
8593;DHT22;4334;49.982;8.398;2023-07-13T01:38:48;18.90;99.90
8593;DHT22;4334;49.982;8.398;2023-07-13T01:43:42;19.00;99.90
8593;DHT22;4334;49.982;8.398;2023-07-13T01:46:09;19.00;99.90
8593;DHT22;4334;49.982;8.398;2023-07-13T01:48:36;19.00;99.90
8593;DHT22;4334;49.982;8.398;2023-07-13T01:51:02;18.70;99.90
8593;DHT22;4334;49.982;8.398;2023-07-13T01:53:29;18.30;99.90
8593;DHT22;4334;49.982;8.398;2023-07-13T01:55:58;18.00;99.90
8593;DHT22;4334;49.982;8.398;2023-07-13T01:58:23;17.70;99.90
8593;DHT22;4334;49.982;8.398;2023-07-13T02:00:51;17.60;99.90
8593;DHT22;4334;49.982;8.398;2023-07-13T02:03:18;17.50;99.90
8593;DHT22;4334;49.982;8.398;2023-07-13T02:05:45;17.40;99.90
8593;DHT22;4334;49.982;8.398;2023-07-13T02:08:12;17.40;99.90
8593;DHT22;4334;49.982;8.398;2023-07-13T02:10:39;17.50;99.90
8593;DHT22;4334;49.982;8.398;2023-07-13T02:13:07;17.40;99.90
8593;DHT22;4334;49.982;8.398;2023-07-13T02:15:34;17.20;99.90
8593;DHT22;4334;49.982;8.398;2023-07-13T02:20:29;16.90;99.90
8593;DHT22;4334;49.982;8.398;2023-07-13T02:22:55;17.00;99.90
8593;DHT22;4334;49.982;8.398;2023-07-13T02:25:22;16.80;99.90
8593;DHT22;4334;49.982;8.398;2023-07-13T02:27:50;16.90;99.90
8593;DHT22;4334;49.982;8.398;2023-07-13T02:30:19;16.90;99.90
8593;DHT22;4334;49.982;8.398;2023-07-13T02:32:45;16.80;99.90
8593;DHT22;4334;49.982;8.398;2023-07-13T02:35:12;16.70;99.90
8593;DHT22;4334;49.982;8.398;2023-07-13T02:37:39;16.50;99.90
8593;DHT22;4334;49.982;8.398;2023-07-13T02:40:07;16.40;99.90
8593;DHT22;4334;49.982;8.398;2023-07-13T02:42:37;16.40;99.90
8593;DHT22;4334;49.982;8.398;2023-07-13T02:45:05;16.30;99.90
8593;DHT22;4334;49.982;8.398;2023-07-13T02:50:01;16.10;99.90
8593;DHT22;4334;49.982;8.398;2023-07-13T02:52:28;16.00;99.90
8593;DHT22;4334;49.982;8.398;2023-07-13T02:54:55;16.10;99.90
8593;DHT22;4334;49.982;8.398;2023-07-13T02:57:21;16.20;99.90
8593;DHT22;4334;49.982;8.398;2023-07-13T03:02:15;16.30;99.90
8593;DHT22;4334;49.982;8.398;2023-07-13T03:04:44;16.30;99.90
8593;DHT22;4334;49.982;8.398;2023-07-13T03:07:11;16.20;99.90
8593;DHT22;4334;49.982;8.398;2023-07-13T03:09:39;16.10;99.90
8593;DHT22;4334;49.982;8.398;2023-07-13T03:12:07;16.00;99.90
8593;DHT22;4334;49.982;8.398;2023-07-13T03:14:34;15.90;99.90
8593;DHT22;4334;49.982;8.398;2023-07-13T03:17:01;15.90;99.90
8593;DHT22;4334;49.982;8.398;2023-07-13T03:19:27;15.80;99.90
8593;DHT22;4334;49.982;8.398;2023-07-13T03:21:55;15.80;99.90
8593;DHT22;4334;49.982;8.398;2023-07-13T03:24:22;15.70;99.90
8593;DHT22;4334;49.982;8.398;2023-07-13T03:26:51;15.50;99.90
8593;DHT22;4334;49.982;8.398;2023-07-13T03:29:18;15.30;99.90
8593;DHT22;4334;49.982;8.398;2023-07-13T03:31:45;15.30;99.90
8593;DHT22;4334;49.982;8.398;2023-07-13T03:36:39;15.50;99.90
8593;DHT22;4334;49.982;8.398;2023-07-13T03:39:09;15.60;99.90
8593;DHT22;4334;49.982;8.398;2023-07-13T03:41:36;15.60;99.90
8593;DHT22;4334;49.982;8.398;2023-07-13T03:44:03;15.50;99.90
8593;DHT22;4334;49.982;8.398;2023-07-13T03:46:30;15.60;99.90
8593;DHT22;4334;49.982;8.398;2023-07-13T03:48:57;15.70;99.90
8593;DHT22;4334;49.982;8.398;2023-07-13T03:51:24;15.70;99.90
8593;DHT22;4334;49.982;8.398;2023-07-13T03:56:19;15.60;99.90
8593;DHT22;4334;49.982;8.398;2023-07-13T03:58:47;15.50;99.90
8593;DHT22;4334;49.982;8.398;2023-07-13T04:01:16;15.50;99.90
8593;DHT22;4334;49.982;8.398;2023-07-13T04:03:43;15.50;99.90
8593;DHT22;4334;49.982;8.398;2023-07-13T04:06:15;15.40;99.90
8593;DHT22;4334;49.982;8.398;2023-07-13T04:08:47;15.30;99.90
8593;DHT22;4334;49.982;8.398;2023-07-13T04:11:14;15.20;99.90
8593;DHT22;4334;49.982;8.398;2023-07-13T04:13:42;15.10;99.90
8593;DHT22;4334;49.982;8.398;2023-07-13T04:18:36;15.50;99.90
8593;DHT22;4334;49.982;8.398;2023-07-13T04:23:30;15.30;99.90
8593;DHT22;4334;49.982;8.398;2023-07-13T04:25:57;15.20;99.90
8593;DHT22;4334;49.982;8.398;2023-07-13T04:28:25;15.30;99.90
8593;DHT22;4334;49.982;8.398;2023-07-13T04:30:54;15.40;99.90
8593;DHT22;4334;49.982;8.398;2023-07-13T04:33:21;16.10;99.90
8593;DHT22;4334;49.982;8.398;2023-07-13T04:35:49;15.80;99.90
8593;DHT22;4334;49.982;8.398;2023-07-13T04:38:20;16.00;99.90
8593;DHT22;4334;49.982;8.398;2023-07-13T04:40:47;16.20;99.90
8593;DHT22;4334;49.982;8.398;2023-07-13T04:43:14;16.40;99.90
8593;DHT22;4334;49.982;8.398;2023-07-13T04:45:41;16.60;99.90
8593;DHT22;4334;49.982;8.398;2023-07-13T04:48:09;16.80;99.90
8593;DHT22;4334;49.982;8.398;2023-07-13T04:50:36;17.20;99.90
8593;DHT22;4334;49.982;8.398;2023-07-13T04:53:03;17.80;99.90
8593;DHT22;4334;49.982;8.398;2023-07-13T04:55:30;18.40;99.90
8593;DHT22;4334;49.982;8.398;2023-07-13T04:57:58;18.40;99.90
8593;DHT22;4334;49.982;8.398;2023-07-13T05:00:25;18.90;99.90
8593;DHT22;4334;49.982;8.398;2023-07-13T05:02:53;19.90;99.90
8593;DHT22;4334;49.982;8.398;2023-07-13T05:05:21;20.20;99.90
8593;DHT22;4334;49.982;8.398;2023-07-13T05:07:48;20.30;99.90
8593;DHT22;4334;49.982;8.398;2023-07-13T05:10:15;20.80;99.90
8593;DHT22;4334;49.982;8.398;2023-07-13T05:12:42;21.00;99.90
8593;DHT22;4334;49.982;8.398;2023-07-13T05:15:09;21.00;99.90
8593;DHT22;4334;49.982;8.398;2023-07-13T05:17:36;21.50;99.90
8593;DHT22;4334;49.982;8.398;2023-07-13T05:20:05;21.90;99.90
8593;DHT22;4334;49.982;8.398;2023-07-13T05:22:34;22.50;99.90
8593;DHT22;4334;49.982;8.398;2023-07-13T05:25:01;23.10;99.90
8593;DHT22;4334;49.982;8.398;2023-07-13T05:27:28;23.20;99.90
8593;DHT22;4334;49.982;8.398;2023-07-13T05:29:54;23.30;99.90
8593;DHT22;4334;49.982;8.398;2023-07-13T05:32:21;23.60;99.90
8593;DHT22;4334;49.982;8.398;2023-07-13T05:34:48;23.80;99.90
8593;DHT22;4334;49.982;8.398;2023-07-13T05:37:15;23.70;98.60
8593;DHT22;4334;49.982;8.398;2023-07-13T05:39:43;23.20;99.50
8593;DHT22;4334;49.982;8.398;2023-07-13T05:42:09;23.20;97.60
8593;DHT22;4334;49.982;8.398;2023-07-13T05:44:36;23.30;98.00
8593;DHT22;4334;49.982;8.398;2023-07-13T05:47:03;23.30;97.10
8593;DHT22;4334;49.982;8.398;2023-07-13T05:49:30;23.40;97.10
8593;DHT22;4334;49.982;8.398;2023-07-13T05:51:57;23.70;95.80
8593;DHT22;4334;49.982;8.398;2023-07-13T05:54:24;23.80;96.00
8593;DHT22;4334;49.982;8.398;2023-07-13T05:56:52;24.00;95.90
8593;DHT22;4334;49.982;8.398;2023-07-13T05:59:19;24.00;94.40
8593;DHT22;4334;49.982;8.398;2023-07-13T06:01:45;23.90;95.30
8593;DHT22;4334;49.982;8.398;2023-07-13T06:04:12;24.40;94.60
8593;DHT22;4334;49.982;8.398;2023-07-13T06:06:39;24.60;93.10
8593;DHT22;4334;49.982;8.398;2023-07-13T06:09:06;24.50;93.40
8593;DHT22;4334;49.982;8.398;2023-07-13T06:11:32;24.60;92.90
8593;DHT22;4334;49.982;8.398;2023-07-13T06:14:02;24.70;92.90
8593;DHT22;4334;49.982;8.398;2023-07-13T06:16:29;24.80;92.70
8593;DHT22;4334;49.982;8.398;2023-07-13T06:18:56;25.20;91.50
8593;DHT22;4334;49.982;8.398;2023-07-13T06:21:23;25.20;91.80
8593;DHT22;4334;49.982;8.398;2023-07-13T06:23:51;25.30;91.70
8593;DHT22;4334;49.982;8.398;2023-07-13T06:26:19;25.50;91.60
8593;DHT22;4334;49.982;8.398;2023-07-13T06:28:47;25.40;90.70
8593;DHT22;4334;49.982;8.398;2023-07-13T06:31:15;25.50;90.00
8593;DHT22;4334;49.982;8.398;2023-07-13T06:33:42;25.60;90.10
8593;DHT22;4334;49.982;8.398;2023-07-13T06:36:09;25.30;90.00
8593;DHT22;4334;49.982;8.398;2023-07-13T06:38:36;25.10;90.30
8593;DHT22;4334;49.982;8.398;2023-07-13T06:41:04;25.30;89.80
8593;DHT22;4334;49.982;8.398;2023-07-13T06:43:31;25.50;90.00
8593;DHT22;4334;49.982;8.398;2023-07-13T06:45:58;25.70;88.00
8593;DHT22;4334;49.982;8.398;2023-07-13T06:48:26;25.70;88.40
8593;DHT22;4334;49.982;8.398;2023-07-13T06:50:53;25.70;88.40
8593;DHT22;4334;49.982;8.398;2023-07-13T06:53:21;25.40;88.50
8593;DHT22;4334;49.982;8.398;2023-07-13T06:55:48;25.40;89.20
8593;DHT22;4334;49.982;8.398;2023-07-13T06:58:16;25.30;89.20
8593;DHT22;4334;49.982;8.398;2023-07-13T07:00:43;24.90;89.40
8593;DHT22;4334;49.982;8.398;2023-07-13T07:03:10;25.00;89.80
8593;DHT22;4334;49.982;8.398;2023-07-13T07:05:38;25.50;88.20
8593;DHT22;4334;49.982;8.398;2023-07-13T07:08:05;25.30;88.40
8593;DHT22;4334;49.982;8.398;2023-07-13T07:10:33;25.20;89.50
8593;DHT22;4334;49.982;8.398;2023-07-13T07:13:00;25.20;89.60
8593;DHT22;4334;49.982;8.398;2023-07-13T07:15:27;25.70;90.20
8593;DHT22;4334;49.982;8.398;2023-07-13T07:17:54;26.60;87.60
8593;DHT22;4334;49.982;8.398;2023-07-13T07:20:21;26.60;85.90
8593;DHT22;4334;49.982;8.398;2023-07-13T07:22:49;26.00;85.10
8593;DHT22;4334;49.982;8.398;2023-07-13T07:25:16;25.80;84.70
8593;DHT22;4334;49.982;8.398;2023-07-13T07:27:43;25.20;86.00
8593;DHT22;4334;49.982;8.398;2023-07-13T07:30:10;24.90;87.30
8593;DHT22;4334;49.982;8.398;2023-07-13T07:32:37;25.20;86.40
8593;DHT22;4334;49.982;8.398;2023-07-13T07:35:05;25.60;87.00
8593;DHT22;4334;49.982;8.398;2023-07-13T07:37:32;25.70;86.70
8593;DHT22;4334;49.982;8.398;2023-07-13T07:40:01;26.10;86.40
8593;DHT22;4334;49.982;8.398;2023-07-13T07:42:28;26.30;86.50
8593;DHT22;4334;49.982;8.398;2023-07-13T07:44:55;26.60;84.10
8593;DHT22;4334;49.982;8.398;2023-07-13T07:47:21;26.40;83.40
8593;DHT22;4334;49.982;8.398;2023-07-13T07:52:19;25.90;86.70
8593;DHT22;4334;49.982;8.398;2023-07-13T07:54:46;26.60;84.10
8593;DHT22;4334;49.982;8.398;2023-07-13T07:57:14;26.70;84.90
8593;DHT22;4334;49.982;8.398;2023-07-13T07:59:41;26.80;82.90
8593;DHT22;4334;49.982;8.398;2023-07-13T08:02:09;26.70;83.90
8593;DHT22;4334;49.982;8.398;2023-07-13T08:04:36;27.70;82.20
8593;DHT22;4334;49.982;8.398;2023-07-13T08:07:03;27.80;81.50
8593;DHT22;4334;49.982;8.398;2023-07-13T08:09:30;26.70;81.70
8593;DHT22;4334;49.982;8.398;2023-07-13T08:11:57;26.70;82.30
8593;DHT22;4334;49.982;8.398;2023-07-13T08:14:25;26.90;80.70
8593;DHT22;4334;49.982;8.398;2023-07-13T08:16:51;26.90;81.50
8593;DHT22;4334;49.982;8.398;2023-07-13T08:19:19;27.00;79.30
8593;DHT22;4334;49.982;8.398;2023-07-13T08:21:46;27.40;77.60
8593;DHT22;4334;49.982;8.398;2023-07-13T08:24:13;26.90;77.90
8593;DHT22;4334;49.982;8.398;2023-07-13T08:26:40;26.00;80.00
8593;DHT22;4334;49.982;8.398;2023-07-13T08:29:07;25.10;81.30
8593;DHT22;4334;49.982;8.398;2023-07-13T08:31:35;25.80;81.40
8593;DHT22;4334;49.982;8.398;2023-07-13T08:34:02;26.60;78.70
8593;DHT22;4334;49.982;8.398;2023-07-13T08:36:29;27.20;78.20
8593;DHT22;4334;49.982;8.398;2023-07-13T08:38:56;27.20;78.20
8593;DHT22;4334;49.982;8.398;2023-07-13T08:41:23;27.10;76.70
8593;DHT22;4334;49.982;8.398;2023-07-13T08:43:53;27.40;74.20
8593;DHT22;4334;49.982;8.398;2023-07-13T08:46:25;27.10;74.40
8593;DHT22;4334;49.982;8.398;2023-07-13T08:48:56;26.80;75.20
8593;DHT22;4334;49.982;8.398;2023-07-13T08:51:33;26.70;75.00
8593;DHT22;4334;49.982;8.398;2023-07-13T08:54:04;26.50;76.80
8593;DHT22;4334;49.982;8.398;2023-07-13T08:56:32;26.70;74.80
8593;DHT22;4334;49.982;8.398;2023-07-13T08:59:03;26.70;74.20
8593;DHT22;4334;49.982;8.398;2023-07-13T09:01:46;26.90;72.60
8593;DHT22;4334;49.982;8.398;2023-07-13T09:04:18;26.90;72.60
8593;DHT22;4334;49.982;8.398;2023-07-13T09:06:55;27.20;71.40
8593;DHT22;4334;49.982;8.398;2023-07-13T09:09:34;26.90;68.60
8593;DHT22;4334;49.982;8.398;2023-07-13T09:12:11;27.00;70.70
8593;DHT22;4334;49.982;8.398;2023-07-13T09:14:43;27.00;71.00
8593;DHT22;4334;49.982;8.398;2023-07-13T09:17:17;27.00;71.20
8593;DHT22;4334;49.982;8.398;2023-07-13T09:19:47;26.90;70.00
8593;DHT22;4334;49.982;8.398;2023-07-13T09:22:20;27.10;69.30
8593;DHT22;4334;49.982;8.398;2023-07-13T09:24:54;27.00;69.30
8593;DHT22;4334;49.982;8.398;2023-07-13T09:27:24;26.30;71.70
8593;DHT22;4334;49.982;8.398;2023-07-13T09:29:57;26.90;71.70
8593;DHT22;4334;49.982;8.398;2023-07-13T09:32:26;27.50;70.30
8593;DHT22;4334;49.982;8.398;2023-07-13T09:34:55;28.00;68.80
8593;DHT22;4334;49.982;8.398;2023-07-13T09:37:27;28.00;68.80
8593;DHT22;4334;49.982;8.398;2023-07-13T09:39:55;27.60;66.80
8593;DHT22;4334;49.982;8.398;2023-07-13T09:42:25;26.90;68.80
8593;DHT22;4334;49.982;8.398;2023-07-13T09:44:55;26.50;69.50
8593;DHT22;4334;49.982;8.398;2023-07-13T09:49:58;27.00;68.80
8593;DHT22;4334;49.982;8.398;2023-07-13T09:52:26;27.30;69.20
8593;DHT22;4334;49.982;8.398;2023-07-13T09:57:26;27.60;67.90
8593;DHT22;4334;49.982;8.398;2023-07-13T09:59:54;26.80;69.20
8593;DHT22;4334;49.982;8.398;2023-07-13T10:02:26;27.30;68.40
8593;DHT22;4334;49.982;8.398;2023-07-13T10:04:58;27.80;67.60
8593;DHT22;4334;49.982;8.398;2023-07-13T10:07:25;27.00;67.10
8593;DHT22;4334;49.982;8.398;2023-07-13T10:09:52;26.50;69.30
8593;DHT22;4334;49.982;8.398;2023-07-13T10:12:20;27.20;68.10
8593;DHT22;4334;49.982;8.398;2023-07-13T10:14:51;27.10;67.40
8593;DHT22;4334;49.982;8.398;2023-07-13T10:17:25;27.30;68.70
8593;DHT22;4334;49.982;8.398;2023-07-13T10:22:25;26.40;70.60
8593;DHT22;4334;49.982;8.398;2023-07-13T10:27:27;26.90;70.00
8593;DHT22;4334;49.982;8.398;2023-07-13T10:32:30;26.20;69.00
8593;DHT22;4334;49.982;8.398;2023-07-13T10:34:56;26.10;68.80
8593;DHT22;4334;49.982;8.398;2023-07-13T10:37:33;26.00;70.00
8593;DHT22;4334;49.982;8.398;2023-07-13T10:40:06;26.00;69.60
8593;DHT22;4334;49.982;8.398;2023-07-13T10:42:40;25.80;70.90
8593;DHT22;4334;49.982;8.398;2023-07-13T10:45:14;25.80;71.30
8593;DHT22;4334;49.982;8.398;2023-07-13T10:47:42;25.80;70.30
8593;DHT22;4334;49.982;8.398;2023-07-13T10:52:45;26.60;68.70
8593;DHT22;4334;49.982;8.398;2023-07-13T10:55:32;26.10;70.60
8593;DHT22;4334;49.982;8.398;2023-07-13T11:00:31;27.40;66.80
8593;DHT22;4334;49.982;8.398;2023-07-13T11:03:00;26.70;65.00
8593;DHT22;4334;49.982;8.398;2023-07-13T11:05:30;26.10;66.60
8593;DHT22;4334;49.982;8.398;2023-07-13T11:08:13;25.60;69.20
8593;DHT22;4334;49.982;8.398;2023-07-13T11:10:51;26.20;69.10
8593;DHT22;4334;49.982;8.398;2023-07-13T11:16:42;27.60;65.30
8593;DHT22;4334;49.982;8.398;2023-07-13T11:22:19;26.70;67.30
8593;DHT22;4334;49.982;8.398;2023-07-13T11:24:57;26.30;67.40
8593;DHT22;4334;49.982;8.398;2023-07-13T11:27:40;25.70;68.30
8593;DHT22;4334;49.982;8.398;2023-07-13T11:30:23;26.10;68.50
8593;DHT22;4334;49.982;8.398;2023-07-13T11:33:01;27.40;66.60
8593;DHT22;4334;49.982;8.398;2023-07-13T11:35:34;28.70;65.10
8593;DHT22;4334;49.982;8.398;2023-07-13T11:38:03;28.50;64.40
8593;DHT22;4334;49.982;8.398;2023-07-13T11:40:37;29.20;63.70
8593;DHT22;4334;49.982;8.398;2023-07-13T11:43:06;29.50;63.70
8593;DHT22;4334;49.982;8.398;2023-07-13T11:48:01;29.30;60.70
8593;DHT22;4334;49.982;8.398;2023-07-13T11:52:59;27.60;62.70
8593;DHT22;4334;49.982;8.398;2023-07-13T11:55:26;28.20;62.50
8593;DHT22;4334;49.982;8.398;2023-07-13T11:57:58;28.90;60.20
8593;DHT22;4334;49.982;8.398;2023-07-13T12:00:29;28.20;61.80
8593;DHT22;4334;49.982;8.398;2023-07-13T12:02:59;28.60;60.70
8593;DHT22;4334;49.982;8.398;2023-07-13T12:05:28;29.00;60.90
8593;DHT22;4334;49.982;8.398;2023-07-13T12:07:56;28.50;60.60
8593;DHT22;4334;49.982;8.398;2023-07-13T12:10:25;27.50;62.80
8593;DHT22;4334;49.982;8.398;2023-07-13T12:12:57;26.50;64.70
8593;DHT22;4334;49.982;8.398;2023-07-13T12:15:32;26.70;64.90
8593;DHT22;4334;49.982;8.398;2023-07-13T12:18:03;26.70;64.60
8593;DHT22;4334;49.982;8.398;2023-07-13T12:20:37;27.00;64.60
8593;DHT22;4334;49.982;8.398;2023-07-13T12:23:05;27.20;64.20
8593;DHT22;4334;49.982;8.398;2023-07-13T12:25:32;26.50;64.70
8593;DHT22;4334;49.982;8.398;2023-07-13T12:28:19;26.20;65.20
8593;DHT22;4334;49.982;8.398;2023-07-13T12:30:48;25.90;66.20
8593;DHT22;4334;49.982;8.398;2023-07-13T12:33:16;26.00;65.70
8593;DHT22;4334;49.982;8.398;2023-07-13T12:40:40;26.50;66.30
8593;DHT22;4334;49.982;8.398;2023-07-13T12:43:13;26.00;66.30
8593;DHT22;4334;49.982;8.398;2023-07-13T12:45:54;26.10;66.60
8593;DHT22;4334;49.982;8.398;2023-07-13T12:48:21;26.50;66.40
8593;DHT22;4334;49.982;8.398;2023-07-13T12:50:50;26.60;66.40
8593;DHT22;4334;49.982;8.398;2023-07-13T12:53:19;26.60;65.00
8593;DHT22;4334;49.982;8.398;2023-07-13T12:55:48;26.50;65.40
8593;DHT22;4334;49.982;8.398;2023-07-13T12:58:26;26.20;65.80
8593;DHT22;4334;49.982;8.398;2023-07-13T13:00:54;26.30;66.80
8593;DHT22;4334;49.982;8.398;2023-07-13T13:03:25;26.40;66.20
8593;DHT22;4334;49.982;8.398;2023-07-13T13:05:58;26.80;67.00
8593;DHT22;4334;49.982;8.398;2023-07-13T13:08:28;26.60;65.40
8593;DHT22;4334;49.982;8.398;2023-07-13T13:10:55;26.30;65.90
8593;DHT22;4334;49.982;8.398;2023-07-13T13:20:47;26.80;65.60
8593;DHT22;4334;49.982;8.398;2023-07-13T13:23:16;26.70;65.70
8593;DHT22;4334;49.982;8.398;2023-07-13T13:25:43;26.80;65.60
8593;DHT22;4334;49.982;8.398;2023-07-13T13:33:14;26.30;65.60
8593;DHT22;4334;49.982;8.398;2023-07-13T13:35:41;26.50;65.60
8593;DHT22;4334;49.982;8.398;2023-07-13T13:38:11;26.60;65.00
8593;DHT22;4334;49.982;8.398;2023-07-13T13:43:17;26.60;64.90
8593;DHT22;4334;49.982;8.398;2023-07-13T13:45:46;26.50;65.50
8593;DHT22;4334;49.982;8.398;2023-07-13T13:48:15;26.60;66.00
8593;DHT22;4334;49.982;8.398;2023-07-13T13:50:43;26.70;65.50
8593;DHT22;4334;49.982;8.398;2023-07-13T13:53:11;26.80;65.90
8593;DHT22;4334;49.982;8.398;2023-07-13T13:55:39;26.40;65.40
8593;DHT22;4334;49.982;8.398;2023-07-13T13:58:08;26.30;64.90
8593;DHT22;4334;49.982;8.398;2023-07-13T14:03:04;26.90;65.50
8593;DHT22;4334;49.982;8.398;2023-07-13T14:07:59;27.50;63.90
8593;DHT22;4334;49.982;8.398;2023-07-13T14:12:55;27.50;65.00
8593;DHT22;4334;49.982;8.398;2023-07-13T14:15:26;27.30;64.50
8593;DHT22;4334;49.982;8.398;2023-07-13T14:17:53;27.00;65.40
8593;DHT22;4334;49.982;8.398;2023-07-13T14:20:22;27.30;64.20
8593;DHT22;4334;49.982;8.398;2023-07-13T14:22:51;27.00;65.00
8593;DHT22;4334;49.982;8.398;2023-07-13T14:25:19;27.00;64.90
8593;DHT22;4334;49.982;8.398;2023-07-13T14:27:49;26.90;64.30
8593;DHT22;4334;49.982;8.398;2023-07-13T14:30:20;26.70;65.60
8593;DHT22;4334;49.982;8.398;2023-07-13T14:32:47;26.10;67.30
8593;DHT22;4334;49.982;8.398;2023-07-13T14:35:16;25.60;68.00
8593;DHT22;4334;49.982;8.398;2023-07-13T14:37:45;25.20;68.90
8593;DHT22;4334;49.982;8.398;2023-07-13T14:42:40;25.10;70.10
8593;DHT22;4334;49.982;8.398;2023-07-13T14:45:13;25.10;69.50
8593;DHT22;4334;49.982;8.398;2023-07-13T14:50:14;25.40;69.00
8593;DHT22;4334;49.982;8.398;2023-07-13T15:00:13;26.10;67.30
8593;DHT22;4334;49.982;8.398;2023-07-13T15:02:42;26.10;67.30
8593;DHT22;4334;49.982;8.398;2023-07-13T15:05:14;26.00;67.20
8593;DHT22;4334;49.982;8.398;2023-07-13T15:07:42;25.90;67.90
8593;DHT22;4334;49.982;8.398;2023-07-13T15:10:15;25.60;67.50
8593;DHT22;4334;49.982;8.398;2023-07-13T15:12:45;25.50;66.80
8593;DHT22;4334;49.982;8.398;2023-07-13T15:15:13;25.40;67.70
8593;DHT22;4334;49.982;8.398;2023-07-13T15:17:41;25.40;67.80
8593;DHT22;4334;49.982;8.398;2023-07-13T15:20:27;25.40;67.80
8593;DHT22;4334;49.982;8.398;2023-07-13T15:25:25;25.50;67.90
8593;DHT22;4334;49.982;8.398;2023-07-13T15:30:20;25.80;67.70
8593;DHT22;4334;49.982;8.398;2023-07-13T15:32:48;25.80;67.50
8593;DHT22;4334;49.982;8.398;2023-07-13T15:35:18;26.00;67.30
8593;DHT22;4334;49.982;8.398;2023-07-13T15:37:46;26.10;66.70
8593;DHT22;4334;49.982;8.398;2023-07-13T15:40:14;26.20;67.40
8593;DHT22;4334;49.982;8.398;2023-07-13T15:42:43;26.60;66.70
8593;DHT22;4334;49.982;8.398;2023-07-13T15:45:16;27.30;65.40
8593;DHT22;4334;49.982;8.398;2023-07-13T15:50:14;26.90;65.40
8593;DHT22;4334;49.982;8.398;2023-07-13T15:52:43;26.50;66.00
8593;DHT22;4334;49.982;8.398;2023-07-13T15:55:12;26.40;66.40
8593;DHT22;4334;49.982;8.398;2023-07-13T15:57:48;26.30;66.20
8593;DHT22;4334;49.982;8.398;2023-07-13T16:00:19;26.10;66.50
8593;DHT22;4334;49.982;8.398;2023-07-13T16:02:47;25.80;66.20
8593;DHT22;4334;49.982;8.398;2023-07-13T16:05:14;26.10;67.00
8593;DHT22;4334;49.982;8.398;2023-07-13T16:07:43;26.10;67.30
8593;DHT22;4334;49.982;8.398;2023-07-13T16:10:14;26.90;65.60
8593;DHT22;4334;49.982;8.398;2023-07-13T16:12:42;28.00;63.90
8593;DHT22;4334;49.982;8.398;2023-07-13T16:15:16;27.50;63.60
8593;DHT22;4334;49.982;8.398;2023-07-13T16:17:44;27.40;64.90
8593;DHT22;4334;49.982;8.398;2023-07-13T16:20:12;27.90;63.40
8593;DHT22;4334;49.982;8.398;2023-07-13T16:25:17;27.60;64.50
8593;DHT22;4334;49.982;8.398;2023-07-13T16:27:45;28.00;63.00
8593;DHT22;4334;49.982;8.398;2023-07-13T16:30:15;28.40;63.00
8593;DHT22;4334;49.982;8.398;2023-07-13T16:32:43;28.20;63.10
8593;DHT22;4334;49.982;8.398;2023-07-13T16:35:10;28.10;63.20
8593;DHT22;4334;49.982;8.398;2023-07-13T16:37:38;27.80;63.00
8593;DHT22;4334;49.982;8.398;2023-07-13T16:40:19;27.30;64.10
8593;DHT22;4334;49.982;8.398;2023-07-13T16:42:47;27.50;64.10
8593;DHT22;4334;49.982;8.398;2023-07-13T16:45:15;27.10;63.90
8593;DHT22;4334;49.982;8.398;2023-07-13T16:47:42;27.70;63.00
8593;DHT22;4334;49.982;8.398;2023-07-13T16:50:17;27.90;63.60
8593;DHT22;4334;49.982;8.398;2023-07-13T16:52:44;27.10;62.10
8593;DHT22;4334;49.982;8.398;2023-07-13T16:55:13;27.70;62.40
8593;DHT22;4334;49.982;8.398;2023-07-13T16:57:43;27.50;62.60
8593;DHT22;4334;49.982;8.398;2023-07-13T17:00:20;26.70;63.50
8593;DHT22;4334;49.982;8.398;2023-07-13T17:02:53;26.80;63.90
8593;DHT22;4334;49.982;8.398;2023-07-13T17:10:22;27.40;62.80
8593;DHT22;4334;49.982;8.398;2023-07-13T17:12:49;26.80;63.30
8593;DHT22;4334;49.982;8.398;2023-07-13T17:15:17;26.30;63.70
8593;DHT22;4334;49.982;8.398;2023-07-13T17:17:46;26.00;64.00
8593;DHT22;4334;49.982;8.398;2023-07-13T17:20:16;25.70;64.70
8593;DHT22;4334;49.982;8.398;2023-07-13T17:22:44;26.30;64.60
8593;DHT22;4334;49.982;8.398;2023-07-13T17:25:13;26.80;63.50
8593;DHT22;4334;49.982;8.398;2023-07-13T17:27:40;27.10;62.90
8593;DHT22;4334;49.982;8.398;2023-07-13T17:32:40;26.70;63.90
8593;DHT22;4334;49.982;8.398;2023-07-13T17:35:25;26.70;63.90
8593;DHT22;4334;49.982;8.398;2023-07-13T17:37:54;26.40;63.80
8593;DHT22;4334;49.982;8.398;2023-07-13T17:40:21;26.30;64.30
8593;DHT22;4334;49.982;8.398;2023-07-13T17:45:21;25.90;62.90
8593;DHT22;4334;49.982;8.398;2023-07-13T17:47:49;25.70;63.30
8593;DHT22;4334;49.982;8.398;2023-07-13T17:50:24;25.70;63.80
8593;DHT22;4334;49.982;8.398;2023-07-13T17:52:54;25.70;63.80
8593;DHT22;4334;49.982;8.398;2023-07-13T17:55:21;25.60;64.10
8593;DHT22;4334;49.982;8.398;2023-07-13T18:00:18;25.30;65.10
8593;DHT22;4334;49.982;8.398;2023-07-13T18:02:54;25.10;65.30
8593;DHT22;4334;49.982;8.398;2023-07-13T18:05:23;24.80;66.10
8593;DHT22;4334;49.982;8.398;2023-07-13T18:10:20;24.60;66.40
8593;DHT22;4334;49.982;8.398;2023-07-13T18:12:49;24.40;67.00
8593;DHT22;4334;49.982;8.398;2023-07-13T18:17:47;24.10;69.20
8593;DHT22;4334;49.982;8.398;2023-07-13T18:25:14;23.90;69.30
8593;DHT22;4334;49.982;8.398;2023-07-13T18:27:42;23.90;69.10
8593;DHT22;4334;49.982;8.398;2023-07-13T18:30:11;23.90;69.60